Weather at Lajes Airport

Public forecast

Using degrees Celsius for public forecast. Weather courtesy of forecast.io.

Current aviation weather report (METAR) for Lajes Airport

Retrieved 2020/10/29 13:00 UTC (2 minutes ago):

LPLA 291300Z /////KT 9999 -RA FEW007 SCT021 22/20 Q1016

Aviation forecast (TAF) for Lajes Airport

Retrieved 2020/10/29 12:21 UTC (41 minutes ago):

TAF COR LPLA 291117Z 2912/3012 22018KT 9999 SCT015 BKN025 TEMPO 2912/3005 23020G35KT 4000 -RADZ SCT010 BKN012 PROB30 TEMPO 2918/3005 1500 +TSRA SCT004 BKN007 SCT020CB BECMG 3004/3006 29010KT PROB40 TEMPO 3005/3012 6000 -RA SCT010 BKN012 BECMG 3008/3010 22022KT TEMPO 3008/3012 23025G40KT